sensor_id;sensor_type;location;lat;lon;timestamp;pressure;altitude;pressure_sealevel;temperature;humidity
40075;BME280;26529;51.530;11.754;2022-10-16T00:01:45;99753.00;;;19.23;56.56
40075;BME280;26529;51.530;11.754;2022-10-16T00:04:12;99749.41;;;19.24;56.65
40075;BME280;26529;51.530;11.754;2022-10-16T00:06:38;99745.78;;;19.25;56.36
40075;BME280;26529;51.530;11.754;2022-10-16T00:09:04;99744.06;;;19.24;56.69
40075;BME280;26529;51.530;11.754;2022-10-16T00:11:32;99752.16;;;19.23;56.44
40075;BME280;26529;51.530;11.754;2022-10-16T00:14:00;99753.75;;;19.25;56.47
40075;BME280;26529;51.530;11.754;2022-10-16T00:16:27;99758.34;;;19.23;56.46
40075;BME280;26529;51.530;11.754;2022-10-16T00:18:53;99760.03;;;19.24;56.42
40075;BME280;26529;51.530;11.754;2022-10-16T00:21:22;99765.34;;;19.24;56.53
40075;BME280;26529;51.530;11.754;2022-10-16T00:24:08;99768.00;;;19.24;56.52
40075;BME280;26529;51.530;11.754;2022-10-16T00:26:35;99769.69;;;19.25;56.62
40075;BME280;26529;51.530;11.754;2022-10-16T00:29:01;99767.03;;;19.25;56.46
40075;BME280;26529;51.530;11.754;2022-10-16T00:31:27;99759.16;;;19.24;56.34
40075;BME280;26529;51.530;11.754;2022-10-16T00:33:53;99764.63;;;19.22;56.73
40075;BME280;26529;51.530;11.754;2022-10-16T00:36:21;99764.63;;;19.22;56.68
40075;BME280;26529;51.530;11.754;2022-10-16T00:38:58;99758.34;;;19.23;56.84
40075;BME280;26529;51.530;11.754;2022-10-16T00:41:27;99744.19;;;19.23;56.82
40075;BME280;26529;51.530;11.754;2022-10-16T00:43:57;99747.69;;;19.23;56.66
40075;BME280;26529;51.530;11.754;2022-10-16T00:46:37;99751.31;;;19.22;56.56
40075;BME280;26529;51.530;11.754;2022-10-16T00:49:07;99757.47;;;19.23;56.51
40075;BME280;26529;51.530;11.754;2022-10-16T00:51:53;99751.31;;;19.22;56.60
40075;BME280;26529;51.530;11.754;2022-10-16T00:54:24;99757.59;;;19.21;56.42
40075;BME280;26529;51.530;11.754;2022-10-16T00:56:52;99760.25;;;19.21;56.63
40075;BME280;26529;51.530;11.754;2022-10-16T00:59:24;99760.25;;;19.21;56.62
40075;BME280;26529;51.530;11.754;2022-10-16T01:01:51;99747.91;;;19.20;56.72
40075;BME280;26529;51.530;11.754;2022-10-16T01:04:17;99747.91;;;19.20;56.63
40075;BME280;26529;51.530;11.754;2022-10-16T01:09:49;99755.88;;;19.20;56.75
40075;BME280;26529;51.530;11.754;2022-10-16T01:15:04;99768.34;;;19.20;56.66
40075;BME280;26529;51.530;11.754;2022-10-16T01:17:47;99768.22;;;19.21;56.77
40075;BME280;26529;51.530;11.754;2022-10-16T01:20:30;99772.78;;;19.19;56.87
40075;BME280;26529;51.530;11.754;2022-10-16T01:25:39;99785.13;;;19.20;56.72
40075;BME280;26529;51.530;11.754;2022-10-16T01:28:15;99794.91;;;19.20;56.63
40075;BME280;26529;51.530;11.754;2022-10-16T01:30:43;99790.44;;;19.20;56.59
40075;BME280;26529;51.530;11.754;2022-10-16T01:34:18;99786.94;;;19.20;56.60
40075;BME280;26529;51.530;11.754;2022-10-16T01:36:27;99789.50;;;19.21;56.70
40075;BME280;26529;51.530;11.754;2022-10-16T01:38:56;99794.06;;;19.19;56.43
40075;BME280;26529;51.530;11.754;2022-10-16T01:41:46;99780.88;;;19.18;56.65
40075;BME280;26529;51.530;11.754;2022-10-16T01:44:26;99794.16;;;19.18;56.70
40075;BME280;26529;51.530;11.754;2022-10-16T01:46:53;99783.66;;;19.16;56.69
40075;BME280;26529;51.530;11.754;2022-10-16T01:49:23;99774.72;;;19.17;56.80
40075;BME280;26529;51.530;11.754;2022-10-16T01:51:52;99765.88;;;19.17;56.51
40075;BME280;26529;51.530;11.754;2022-10-16T01:54:23;99762.41;;;19.16;56.72
40075;BME280;26529;51.530;11.754;2022-10-16T01:56:51;99759.72;;;19.16;56.60
40075;BME280;26529;51.530;11.754;2022-10-16T01:59:19;99767.72;;;19.16;56.60
40075;BME280;26529;51.530;11.754;2022-10-16T02:01:52;99769.59;;;19.14;56.68
40075;BME280;26529;51.530;11.754;2022-10-16T02:04:39;99770.47;;;19.15;56.63
40075;BME280;26529;51.530;11.754;2022-10-16T02:07:08;99784.63;;;19.15;56.56
40075;BME280;26529;51.530;11.754;2022-10-16T02:09:34;99777.56;;;19.14;56.69
40075;BME280;26529;51.530;11.754;2022-10-16T02:12:05;99786.41;;;19.15;56.69
40075;BME280;26529;51.530;11.754;2022-10-16T02:14:32;99788.97;;;19.16;56.62
40075;BME280;26529;51.530;11.754;2022-10-16T02:16:58;99801.28;;;19.17;56.50
40075;BME280;26529;51.530;11.754;2022-10-16T02:19:23;99800.56;;;19.15;56.60
40075;BME280;26529;51.530;11.754;2022-10-16T02:21:50;99798.63;;;19.17;56.51
40075;BME280;26529;51.530;11.754;2022-10-16T02:26:50;99804.91;;;19.16;56.65
40075;BME280;26529;51.530;11.754;2022-10-16T02:29:21;99812.13;;;19.14;56.60
40075;BME280;26529;51.530;11.754;2022-10-16T02:31:51;99809.47;;;19.14;56.67
40075;BME280;26529;51.530;11.754;2022-10-16T02:34:20;99813.94;;;19.14;56.58
40075;BME280;26529;51.530;11.754;2022-10-16T02:36:48;99806.81;;;19.14;56.64
40075;BME280;26529;51.530;11.754;2022-10-16T02:39:16;99804.16;;;19.14;56.64
40075;BME280;26529;51.530;11.754;2022-10-16T02:41:42;99806.06;;;19.12;56.70
40075;BME280;26529;51.530;11.754;2022-10-16T02:44:08;99807.78;;;19.13;56.72
40075;BME280;26529;51.530;11.754;2022-10-16T02:46:33;99803.41;;;19.12;56.72
40075;BME280;26529;51.530;11.754;2022-10-16T02:48:59;99803.41;;;19.12;56.63
40075;BME280;26529;51.530;11.754;2022-10-16T02:51:24;99798.97;;;19.13;56.55
40075;BME280;26529;51.530;11.754;2022-10-16T02:53:50;99803.53;;;19.10;56.65
40075;BME280;26529;51.530;11.754;2022-10-16T02:56:16;99803.41;;;19.12;56.65
40075;BME280;26529;51.530;11.754;2022-10-16T02:58:41;99809.59;;;19.13;56.94
40075;BME280;26529;51.530;11.754;2022-10-16T03:01:07;99807.03;;;19.11;56.57
40075;BME280;26529;51.530;11.754;2022-10-16T03:03:33;99810.66;;;19.10;56.66
40075;BME280;26529;51.530;11.754;2022-10-16T03:05:58;99801.63;;;19.13;56.62
40075;BME280;26529;51.530;11.754;2022-10-16T03:08:24;99810.44;;;19.13;56.58
40075;BME280;26529;51.530;11.754;2022-10-16T03:10:51;99812.13;;;19.14;56.74
40075;BME280;26529;51.530;11.754;2022-10-16T03:13:16;99816.59;;;19.14;56.56
40075;BME280;26529;51.530;11.754;2022-10-16T03:15:43;99824.69;;;19.12;56.59
40075;BME280;26529;51.530;11.754;2022-10-16T03:18:09;99825.41;;;19.14;56.48
40075;BME280;26529;51.530;11.754;2022-10-16T03:20:34;99819.38;;;19.12;56.69
40075;BME280;26529;51.530;11.754;2022-10-16T03:23:00;99822.13;;;19.10;56.60
40075;BME280;26529;51.530;11.754;2022-10-16T03:25:25;99826.59;;;19.10;56.66
40075;BME280;26529;51.530;11.754;2022-10-16T03:27:51;99815.13;;;19.09;56.63
40075;BME280;26529;51.530;11.754;2022-10-16T03:30:17;99809.78;;;19.09;56.70
40075;BME280;26529;51.530;11.754;2022-10-16T03:32:44;99812.34;;;19.11;56.39
40075;BME280;26529;51.530;11.754;2022-10-16T03:35:10;99818.63;;;19.10;56.47
40075;BME280;26529;51.530;11.754;2022-10-16T03:37:36;99812.34;;;19.11;56.52
40075;BME280;26529;51.530;11.754;2022-10-16T03:40:03;99808.97;;;19.09;56.72
40075;BME280;26529;51.530;11.754;2022-10-16T03:42:29;99801.72;;;19.11;56.54
40075;BME280;26529;51.530;11.754;2022-10-16T03:44:54;99805.34;;;19.10;56.59
40075;BME280;26529;51.530;11.754;2022-10-16T03:47:20;99801.72;;;19.11;56.55
40075;BME280;26529;51.530;11.754;2022-10-16T03:49:47;99801.72;;;19.11;56.43
40075;BME280;26529;51.530;11.754;2022-10-16T03:52:13;99799.06;;;19.11;56.65
40075;BME280;26529;51.530;11.754;2022-10-16T03:54:39;99805.25;;;19.11;56.50
40075;BME280;26529;51.530;11.754;2022-10-16T03:57:04;99797.38;;;19.10;56.60
40075;BME280;26529;51.530;11.754;2022-10-16T03:59:30;99811.50;;;19.10;56.47
40075;BME280;26529;51.530;11.754;2022-10-16T04:01:56;99815.13;;;19.09;56.69
40075;BME280;26529;51.530;11.754;2022-10-16T04:04:21;99818.63;;;19.10;56.64
40075;BME280;26529;51.530;11.754;2022-10-16T04:06:47;99803.41;;;19.12;56.55
40075;BME280;26529;51.530;11.754;2022-10-16T04:09:13;99829.38;;;19.08;56.57
40075;BME280;26529;51.530;11.754;2022-10-16T04:11:38;99840.84;;;19.09;56.74
40075;BME280;26529;51.530;11.754;2022-10-16T04:14:04;99836.38;;;19.09;56.44
40075;BME280;26529;51.530;11.754;2022-10-16T04:16:30;99848.81;;;19.09;56.60
40075;BME280;26529;51.530;11.754;2022-10-16T04:18:55;99842.75;;;19.07;56.48
40075;BME280;26529;51.530;11.754;2022-10-16T04:21:21;99856.78;;;19.09;56.51
40075;BME280;26529;51.530;11.754;2022-10-16T04:23:47;99847.88;;;19.10;56.65
40075;BME280;26529;51.530;11.754;2022-10-16T04:26:13;99841.81;;;19.08;56.52
40075;BME280;26529;51.530;11.754;2022-10-16T04:28:39;99837.44;;;19.07;56.58
40075;BME280;26529;51.530;11.754;2022-10-16T04:31:05;99854.25;;;19.07;56.66
40075;BME280;26529;51.530;11.754;2022-10-16T04:33:31;99858.69;;;19.07;56.51
40075;BME280;26529;51.530;11.754;2022-10-16T04:35:58;99868.38;;;19.08;56.47
40075;BME280;26529;51.530;11.754;2022-10-16T04:38:24;99877.28;;;19.07;56.53
40075;BME280;26529;51.530;11.754;2022-10-16T04:40:50;99885.25;;;19.07;56.46
40075;BME280;26529;51.530;11.754;2022-10-16T04:43:15;99882.59;;;19.07;56.62
40075;BME280;26529;51.530;11.754;2022-10-16T04:45:41;99888.69;;;19.09;56.64
40075;BME280;26529;51.530;11.754;2022-10-16T04:48:06;99869.13;;;19.10;56.38
40075;BME280;26529;51.530;11.754;2022-10-16T04:50:32;99882.41;;;19.10;56.39
40075;BME280;26529;51.530;11.754;2022-10-16T04:53:05;99889.53;;;19.09;56.42
40075;BME280;26529;51.530;11.754;2022-10-16T04:55:31;99891.22;;;19.10;56.47
40075;BME280;26529;51.530;11.754;2022-10-16T04:57:57;99888.78;;;19.07;56.60
40075;BME280;26529;51.530;11.754;2022-10-16T05:00:22;99895.91;;;19.07;56.58
40075;BME280;26529;51.530;11.754;2022-10-16T05:02:50;99892.41;;;19.06;56.65
40075;BME280;26529;51.530;11.754;2022-10-16T05:05:16;99899.41;;;19.07;56.74
40075;BME280;26529;51.530;11.754;2022-10-16T05:07:41;99905.78;;;19.05;56.62
40075;BME280;26529;51.530;11.754;2022-10-16T05:10:07;99902.16;;;19.06;56.49
40075;BME280;26529;51.530;11.754;2022-10-16T05:12:33;99904.81;;;19.06;56.61
40075;BME280;26529;51.530;11.754;2022-10-16T05:14:59;99897.81;;;19.05;56.47
40075;BME280;26529;51.530;11.754;2022-10-16T05:17:25;99909.19;;;19.07;56.33
40075;BME280;26529;51.530;11.754;2022-10-16T05:19:51;99919.94;;;19.05;56.62
40075;BME280;26529;51.530;11.754;2022-10-16T05:22:17;99912.78;;;19.06;56.46
40075;BME280;26529;51.530;11.754;2022-10-16T05:24:42;99917.13;;;17.13;62.01
40075;BME280;26529;51.530;11.754;2022-10-16T05:27:08;99914.41;;;18.14;59.38
40075;BME280;26529;51.530;11.754;2022-10-16T05:29:33;99911.47;;;18.73;57.72
40075;BME280;26529;51.530;11.754;2022-10-16T05:32:00;99912.44;;;18.97;56.76
40075;BME280;26529;51.530;11.754;2022-10-16T05:34:26;99920.56;;;19.09;56.53
40075;BME280;26529;51.530;11.754;2022-10-16T05:36:51;99909.09;;;19.21;56.36
40075;BME280;26529;51.530;11.754;2022-10-16T05:39:17;99906.94;;;19.27;56.31
40075;BME280;26529;51.530;11.754;2022-10-16T05:41:43;99913.94;;;19.28;56.38
40075;BME280;26529;51.530;11.754;2022-10-16T05:44:09;99920.22;;;19.27;56.42
40075;BME280;26529;51.530;11.754;2022-10-16T05:46:34;99920.38;;;19.25;56.52
40075;BME280;26529;51.530;11.754;2022-10-16T05:49:00;99910.78;;;19.22;56.30
40075;BME280;26529;51.530;11.754;2022-10-16T05:51:25;99920.56;;;19.22;56.35
40075;BME280;26529;51.530;11.754;2022-10-16T05:53:52;99923.94;;;19.24;56.55
40075;BME280;26529;51.530;11.754;2022-10-16T05:56:17;99930.13;;;19.24;57.14
40075;BME280;26529;51.530;11.754;2022-10-16T05:58:43;99937.25;;;19.24;56.96
40075;BME280;26529;51.530;11.754;2022-10-16T06:01:11;99939.91;;;19.24;56.93
40075;BME280;26529;51.530;11.754;2022-10-16T06:03:37;99945.22;;;19.24;56.79
40075;BME280;26529;51.530;11.754;2022-10-16T06:06:13;99953.09;;;19.25;56.92
40075;BME280;26529;51.530;11.754;2022-10-16T06:08:40;99950.34;;;19.27;56.92
40075;BME280;26529;51.530;11.754;2022-10-16T06:11:09;99949.59;;;19.38;56.66
40075;BME280;26529;51.530;11.754;2022-10-16T06:13:35;99954.56;;;19.43;56.92
40075;BME280;26529;51.530;11.754;2022-10-16T06:16:03;99963.94;;;19.48;57.21
40075;BME280;26529;51.530;11.754;2022-10-16T06:18:29;99966.91;;;19.57;57.32
40075;BME280;26529;51.530;11.754;2022-10-16T06:20:55;99963.50;;;19.68;57.20
40075;BME280;26529;51.530;11.754;2022-10-16T06:23:22;99959.19;;;19.78;57.13
40075;BME280;26529;51.530;11.754;2022-10-16T06:25:48;99961.88;;;19.78;57.14
40075;BME280;26529;51.530;11.754;2022-10-16T06:28:14;99961.47;;;19.71;57.08
40075;BME280;26529;51.530;11.754;2022-10-16T06:30:41;99961.38;;;19.73;57.48
40075;BME280;26529;51.530;11.754;2022-10-16T06:33:08;99967.31;;;19.63;57.39
40075;BME280;26529;51.530;11.754;2022-10-16T06:35:33;99968.38;;;19.61;57.33
40075;BME280;26529;51.530;11.754;2022-10-16T06:37:59;99971.28;;;19.58;57.31
40075;BME280;26529;51.530;11.754;2022-10-16T06:40:24;99958.19;;;19.55;57.35
40075;BME280;26529;51.530;11.754;2022-10-16T06:42:50;99950.66;;;19.48;57.61
40075;BME280;26529;51.530;11.754;2022-10-16T06:45:17;99938.44;;;19.46;57.46
40075;BME280;26529;51.530;11.754;2022-10-16T06:47:42;99921.84;;;19.42;57.55
40075;BME280;26529;51.530;11.754;2022-10-16T06:50:08;99920.09;;;19.41;57.38
40075;BME280;26529;51.530;11.754;2022-10-16T06:52:34;99929.06;;;19.40;57.35
40075;BME280;26529;51.530;11.754;2022-10-16T06:55:00;99933.41;;;19.41;57.36
40075;BME280;26529;51.530;11.754;2022-10-16T06:57:25;99941.38;;;19.41;56.95
40075;BME280;26529;51.530;11.754;2022-10-16T06:59:51;99943.31;;;19.39;56.88
40075;BME280;26529;51.530;11.754;2022-10-16T07:02:16;99946.94;;;19.38;57.18
40075;BME280;26529;51.530;11.754;2022-10-16T07:04:42;99944.16;;;19.39;57.02
40075;BME280;26529;51.530;11.754;2022-10-16T07:07:07;99945.97;;;19.39;56.97
40075;BME280;26529;51.530;11.754;2022-10-16T07:09:33;99958.28;;;19.40;56.95
40075;BME280;26529;51.530;11.754;2022-10-16T07:11:59;99962.66;;;19.41;56.89
40075;BME280;26529;51.530;11.754;2022-10-16T07:14:24;99959.06;;;19.42;56.68
40075;BME280;26529;51.530;11.754;2022-10-16T07:16:50;99965.94;;;19.45;56.65
40075;BME280;26529;51.530;11.754;2022-10-16T07:19:16;99976.72;;;19.43;56.70
40075;BME280;26529;51.530;11.754;2022-10-16T07:21:43;99973.91;;;19.45;56.61
40075;BME280;26529;51.530;11.754;2022-10-16T07:24:14;99979.38;;;19.43;56.45
40075;BME280;26529;51.530;11.754;2022-10-16T07:26:42;99980.09;;;19.45;56.47
40075;BME280;26529;51.530;11.754;2022-10-16T07:29:20;99985.41;;;19.45;56.33
40075;BME280;26529;51.530;11.754;2022-10-16T07:31:47;99991.69;;;19.44;56.50
40075;BME280;26529;51.530;11.754;2022-10-16T07:34:14;99998.81;;;19.44;56.27
40075;BME280;26529;51.530;11.754;2022-10-16T07:36:40;100013.94;;;19.43;56.41
40075;BME280;26529;51.530;11.754;2022-10-16T07:39:05;100021.03;;;19.43;56.34
40075;BME280;26529;51.530;11.754;2022-10-16T07:41:31;100020.22;;;19.42;56.40
40075;BME280;26529;51.530;11.754;2022-10-16T07:43:58;100022.88;;;19.42;56.35
40075;BME280;26529;51.530;11.754;2022-10-16T07:46:27;100008.63;;;19.43;56.36
40075;BME280;26529;51.530;11.754;2022-10-16T07:48:53;100003.28;;;19.43;56.33
40075;BME280;26529;51.530;11.754;2022-10-16T07:51:21;99996.28;;;19.42;56.28
40075;BME280;26529;51.530;11.754;2022-10-16T07:53:47;100007.75;;;19.43;56.14
40075;BME280;26529;51.530;11.754;2022-10-16T07:56:13;100016.59;;;19.43;56.20
40075;BME280;26529;51.530;11.754;2022-10-16T07:58:39;100026.25;;;19.44;56.06
40075;BME280;26529;51.530;11.754;2022-10-16T08:01:07;100034.16;;;19.46;56.10
40075;BME280;26529;51.530;11.754;2022-10-16T08:03:33;100039.47;;;19.46;56.04
40075;BME280;26529;51.530;11.754;2022-10-16T08:05:59;100039.34;;;19.47;56.00
40075;BME280;26529;51.530;11.754;2022-10-16T08:08:25;100045.63;;;19.46;55.92
40075;BME280;26529;51.530;11.754;2022-10-16T08:10:52;100031.34;;;19.47;56.09
40075;BME280;26529;51.530;11.754;2022-10-16T08:13:17;100025.13;;;19.48;55.93
40075;BME280;26529;51.530;11.754;2022-10-16T08:15:43;100026.81;;;19.49;55.91
40075;BME280;26529;51.530;11.754;2022-10-16T08:18:10;100018.84;;;19.49;55.91
40075;BME280;26529;51.530;11.754;2022-10-16T08:20:36;100040.84;;;19.51;55.82
40075;BME280;26529;51.530;11.754;2022-10-16T08:23:02;100049.69;;;19.52;55.82
40075;BME280;26529;51.530;11.754;2022-10-16T08:25:28;100054.13;;;19.51;55.66
40075;BME280;26529;51.530;11.754;2022-10-16T08:27:54;100062.22;;;19.50;55.91
40075;BME280;26529;51.530;11.754;2022-10-16T08:30:21;100063.06;;;19.50;55.83
40075;BME280;26529;51.530;11.754;2022-10-16T08:32:46;100061.16;;;19.52;55.79
40075;BME280;26529;51.530;11.754;2022-10-16T08:35:13;100068.16;;;19.53;55.73
40075;BME280;26529;51.530;11.754;2022-10-16T08:37:39;100068.16;;;19.53;55.47
40075;BME280;26529;51.530;11.754;2022-10-16T08:40:07;100080.50;;;19.55;55.35
40075;BME280;26529;51.530;11.754;2022-10-16T08:50:41;100090.72;;;19.61;55.22
40075;BME280;26529;51.530;11.754;2022-10-16T08:53:15;100101.25;;;19.62;55.29
40075;BME280;26529;51.530;11.754;2022-10-16T08:55:43;100098.50;;;19.64;55.31
40075;BME280;26529;51.530;11.754;2022-10-16T08:58:15;100109.16;;;19.64;55.39
40075;BME280;26529;51.530;11.754;2022-10-16T09:00:44;100109.25;;;19.62;55.66
40075;BME280;26529;51.530;11.754;2022-10-16T09:11:22;100110.44;;;19.71;55.23
40075;BME280;26529;51.530;11.754;2022-10-16T09:14:04;100121.81;;;19.73;54.96
40075;BME280;26529;51.530;11.754;2022-10-16T09:16:44;100100.53;;;19.73;55.00
40075;BME280;26529;51.530;11.754;2022-10-16T09:19:25;100110.53;;;19.70;55.10
40075;BME280;26529;51.530;11.754;2022-10-16T09:21:55;100126.72;;;19.66;55.09
40075;BME280;26529;51.530;11.754;2022-10-16T09:24:24;100115.44;;;19.63;55.38
40075;BME280;26529;51.530;11.754;2022-10-16T09:26:50;100116.25;;;19.63;55.25
40075;BME280;26529;51.530;11.754;2022-10-16T09:29:17;100122.22;;;19.67;54.97
40075;BME280;26529;51.530;11.754;2022-10-16T09:31:45;100119.56;;;19.67;55.06
40075;BME280;26529;51.530;11.754;2022-10-16T09:34:36;100123.09;;;19.68;54.97
40075;BME280;26529;51.530;11.754;2022-10-16T09:37:09;100122.34;;;19.65;55.08
40075;BME280;26529;51.530;11.754;2022-10-16T09:39:46;100123.19;;;19.66;55.19
40075;BME280;26529;51.530;11.754;2022-10-16T09:44:49;100142.44;;;19.70;54.97
40075;BME280;26529;51.530;11.754;2022-10-16T09:47:18;100136.38;;;19.68;55.22
40075;BME280;26529;51.530;11.754;2022-10-16T09:52:26;100129.47;;;19.65;55.01
40075;BME280;26529;51.530;11.754;2022-10-16T09:54:54;100132.84;;;19.67;54.97
40075;BME280;26529;51.530;11.754;2022-10-16T09:57:22;100140.09;;;19.65;55.06
40075;BME280;26529;51.530;11.754;2022-10-16T09:59:55;100138.41;;;19.64;55.13
40075;BME280;26529;51.530;11.754;2022-10-16T10:02:37;100144.47;;;19.66;55.18
40075;BME280;26529;51.530;11.754;2022-10-16T10:05:05;100146.38;;;19.64;55.01
40075;BME280;26529;51.530;11.754;2022-10-16T10:07:43;100149.03;;;19.64;55.12
40075;BME280;26529;51.530;11.754;2022-10-16T10:10:22;100157.97;;;19.63;55.11
40075;BME280;26529;51.530;11.754;2022-10-16T10:12:49;100155.31;;;19.63;55.02
40075;BME280;26529;51.530;11.754;2022-10-16T10:15:15;100158.72;;;19.65;55.03
40075;BME280;26529;51.530;11.754;2022-10-16T10:17:55;100152.25;;;19.69;54.81
40075;BME280;26529;51.530;11.754;2022-10-16T10:20:35;100139.69;;;19.71;54.74
40075;BME280;26529;51.530;11.754;2022-10-16T10:23:22;100152.13;;;19.71;54.67
40075;BME280;26529;51.530;11.754;2022-10-16T10:26:10;100157.56;;;19.69;54.91
40075;BME280;26529;51.530;11.754;2022-10-16T10:31:20;100160.09;;;19.71;54.93
40075;BME280;26529;51.530;11.754;2022-10-16T10:33:54;100157.56;;;19.69;54.76
40075;BME280;26529;51.530;11.754;2022-10-16T10:39:01;100149.69;;;19.68;54.78
40075;BME280;26529;51.530;11.754;2022-10-16T10:49:38;100149.47;;;19.71;54.84
40075;BME280;26529;51.530;11.754;2022-10-16T10:55:10;100169.03;;;19.70;54.81
40075;BME280;26529;51.530;11.754;2022-10-16T10:57:43;100158.22;;;19.73;54.74
40075;BME280;26529;51.530;11.754;2022-10-16T11:06:16;100160.75;;;19.74;54.79
40075;BME280;26529;51.530;11.754;2022-10-16T11:08:48;100161.94;;;19.70;54.65
40075;BME280;26529;51.530;11.754;2022-10-16T11:14:11;100164.38;;;19.73;54.62
40075;BME280;26529;51.530;11.754;2022-10-16T11:16:46;100177.66;;;19.73;54.63
40075;BME280;26529;51.530;11.754;2022-10-16T11:24:45;100173.94;;;19.76;54.58
40075;BME280;26529;51.530;11.754;2022-10-16T11:27:17;100173.94;;;19.76;54.27
40075;BME280;26529;51.530;11.754;2022-10-16T11:29:53;100180.31;;;19.73;54.63
40075;BME280;26529;51.530;11.754;2022-10-16T11:35:36;100183.94;;;19.72;54.71
40075;BME280;26529;51.530;11.754;2022-10-16T11:38:12;100190.97;;;19.73;54.91
40075;BME280;26529;51.530;11.754;2022-10-16T11:40:41;100188.31;;;19.73;54.80
40075;BME280;26529;51.530;11.754;2022-10-16T11:43:11;100180.31;;;19.73;54.75
40075;BME280;26529;51.530;11.754;2022-10-16T11:45:49;100189.28;;;19.72;54.76
40075;BME280;26529;51.530;11.754;2022-10-16T11:48:33;100208.84;;;19.71;54.71
40075;BME280;26529;51.530;11.754;2022-10-16T11:51:14;100215.22;;;19.69;54.75
40075;BME280;26529;51.530;11.754;2022-10-16T11:53:46;100215.22;;;19.69;54.74
40075;BME280;26529;51.530;11.754;2022-10-16T11:56:18;100222.47;;;19.66;54.80
40075;BME280;26529;51.530;11.754;2022-10-16T11:59:02;100222.47;;;19.66;54.74
40075;BME280;26529;51.530;11.754;2022-10-16T12:01:40;100222.47;;;19.66;54.78
40075;BME280;26529;51.530;11.754;2022-10-16T12:06:55;100237.38;;;19.69;54.72
40075;BME280;26529;51.530;11.754;2022-10-16T12:09:28;100236.50;;;19.69;54.78
40075;BME280;26529;51.530;11.754;2022-10-16T12:11:55;100239.25;;;19.67;54.70
40075;BME280;26529;51.530;11.754;2022-10-16T12:16:58;100230.13;;;19.71;54.63
40075;BME280;26529;51.530;11.754;2022-10-16T12:19:27;100231.00;;;19.72;54.81
40075;BME280;26529;51.530;11.754;2022-10-16T12:21:56;100238.09;;;19.71;54.93
40075;BME280;26529;51.530;11.754;2022-10-16T12:27:00;100240.16;;;19.80;55.38
40075;BME280;26529;51.530;11.754;2022-10-16T12:29:29;100233.88;;;19.82;55.59
40075;BME280;26529;51.530;11.754;2022-10-16T12:31:57;100229.09;;;19.87;56.23
40075;BME280;26529;51.530;11.754;2022-10-16T12:34:37;100225.28;;;19.91;56.61
40075;BME280;26529;51.530;11.754;2022-10-16T12:37:13;100230.06;;;19.86;56.64
40075;BME280;26529;51.530;11.754;2022-10-16T12:39:40;100224.72;;;19.86;57.09
40075;BME280;26529;51.530;11.754;2022-10-16T12:44:46;100236.75;;;19.91;57.33
40075;BME280;26529;51.530;11.754;2022-10-16T12:49:54;100244.00;;;19.89;56.92
40075;BME280;26529;51.530;11.754;2022-10-16T12:52:25;100233.56;;;19.86;56.56
40075;BME280;26529;51.530;11.754;2022-10-16T12:54:51;100231.66;;;19.88;56.87
40075;BME280;26529;51.530;11.754;2022-10-16T13:00:04;100221.81;;;20.03;56.97
40075;BME280;26529;51.530;11.754;2022-10-16T13:05:52;100203.50;;;19.99;56.94
40075;BME280;26529;51.530;11.754;2022-10-16T13:08:58;100210.63;;;19.98;56.81
40075;BME280;26529;51.530;11.754;2022-10-16T13:22:06;100215.53;;;20.04;56.90
40075;BME280;26529;51.530;11.754;2022-10-16T13:25:31;100226.09;;;20.06;56.96
40075;BME280;26529;51.530;11.754;2022-10-16T13:27:56;100233.19;;;20.05;56.75
40075;BME280;26529;51.530;11.754;2022-10-16T13:30:26;100238.31;;;20.09;57.07
40075;BME280;26529;51.530;11.754;2022-10-16T13:33:06;100243.22;;;20.15;56.48
40075;BME280;26529;51.530;11.754;2022-10-16T13:35:34;100246.09;;;20.12;56.49
40075;BME280;26529;51.530;11.754;2022-10-16T13:38:13;100246.75;;;20.02;56.36
40075;BME280;26529;51.530;11.754;2022-10-16T13:40:59;100245.00;;;20.01;56.34
40075;BME280;26529;51.530;11.754;2022-10-16T13:43:34;100245.22;;;19.98;56.16
40075;BME280;26529;51.530;11.754;2022-10-16T13:46:12;100246.19;;;19.97;56.27
40075;BME280;26529;51.530;11.754;2022-10-16T13:48:39;100252.53;;;19.95;56.18
40075;BME280;26529;51.530;11.754;2022-10-16T13:51:16;100261.19;;;19.98;56.01
40075;BME280;26529;51.530;11.754;2022-10-16T13:53:42;100254.91;;;19.99;55.90
40075;BME280;26529;51.530;11.754;2022-10-16T13:56:14;100262.16;;;19.97;56.17
40075;BME280;26529;51.530;11.754;2022-10-16T13:58:40;100268.78;;;19.49;63.05
40075;BME280;26529;51.530;11.754;2022-10-16T14:01:16;100264.13;;;18.82;67.22
40075;BME280;26529;51.530;11.754;2022-10-16T14:03:44;100263.75;;;18.59;69.49
40075;BME280;26529;51.530;11.754;2022-10-16T14:06:16;100262.59;;;18.34;70.89
40075;BME280;26529;51.530;11.754;2022-10-16T14:08:48;100269.47;;;18.67;68.71
40075;BME280;26529;51.530;11.754;2022-10-16T14:11:23;100270.59;;;18.63;70.39
40075;BME280;26529;51.530;11.754;2022-10-16T14:13:50;100263.28;;;18.67;69.14
40075;BME280;26529;51.530;11.754;2022-10-16T14:16:22;100257.69;;;18.71;69.28
40075;BME280;26529;51.530;11.754;2022-10-16T14:18:57;100266.69;;;18.54;70.63
40075;BME280;26529;51.530;11.754;2022-10-16T14:21:23;100274.00;;;18.65;69.54
40075;BME280;26529;51.530;11.754;2022-10-16T14:23:49;100274.75;;;19.11;65.42
40075;BME280;26529;51.530;11.754;2022-10-16T14:26:19;100272.50;;;18.61;69.18
40075;BME280;26529;51.530;11.754;2022-10-16T14:28:46;100284.25;;;18.71;68.60
40075;BME280;26529;51.530;11.754;2022-10-16T14:31:28;100281.88;;;18.67;68.89
40075;BME280;26529;51.530;11.754;2022-10-16T14:33:54;100282.63;;;18.83;68.28